This is the latest recevied weather packets stored in our database for station/object EA2AFZ-W. If no packets are shown the sender has not sent any weather packets the latest 10 day(s).
| Time | Temp. | Humidity | Pressure | Rain* | Wind** | Luminosity | Snow |
|---|---|---|---|---|---|---|---|
| 1787858136 | 23.89° C | 37% | 1011 hPa | 0 mm | - | - | - |
| 1787856334 | 24.44° C | 36% | 1011 hPa | 0 mm | - | - | - |
| 1787854533 | 25° C | 36% | 1010 hPa | 0 mm | - | - | - |
| 1787852730 | 25.56° C | 40% | 1010 hPa | 0 mm | - | - | - |
| 1787850928 | 26.11° C | 38% | 1010 hPa | 0 mm | - | - | - |
| 1787849126 | 26.11° C | 43% | 1009 hPa | 0 mm | - | - | - |
| 1787847323 | 26.67° C | 44% | 1009 hPa | 0 mm | - | - | - |
| 1787845520 | 28.89° C | 26% | 1009 hPa | 0 mm | - | - | - |
| 1787843717 | 29.44° C | 24% | 1008 hPa | 0 mm | - | - | - |
| 1787841916 | 29.44° C | 24% | 1008 hPa | 0 mm | - | - | - |
| 1787840114 | 29.44° C | 26% | 1007 hPa | 0 mm | - | - | - |
| 1787838311 | 29.44° C | 30% | 1007 hPa | 0 mm | - | - | - |
| 1787836509 | 28.33° C | 37% | 1008 hPa | 0 mm | - | - | - |
| 1787834705 | 28.33° C | 42% | 1008 hPa | 0 mm | - | - | - |
| 1787832964 | 28.33° C | 44% | 1008 hPa | 0 mm | - | - | - |
| 1787831161 | 27.78° C | 47% | 1009 hPa | 0 mm | - | - | - |
| 1787829360 | 26.11° C | 49% | 1009 hPa | 0 mm | - | - | - |
| 1787827557 | 26.11° C | 47% | 1009 hPa | 0 mm | - | - | - |
| 1787825755 | 23.89° C | 54% | 1009 hPa | 0 mm | - | - | - |
| 1787823952 | 22.78° C | 55% | 1010 hPa | 0 mm | - | - | - |
| 1787822151 | 22.22° C | 57% | 1010 hPa | 0 mm | - | - | - |
| 1787820348 | 22.78° C | 57% | 1010 hPa | 0 mm | - | - | - |
| 1787818545 | 20.56° C | 61% | 1010 hPa | 0 mm | - | - | - |
| 1787816743 | 20.56° C | 62% | 1010 hPa | 0 mm | - | - | - |
| 1787814940 | 21.11° C | 62% | 1010 hPa | 0 mm | - | - | - |
* Rain latest hour (hover to see other rain measurements)
** Current wind speed in m/s (hover to see current wind gust speed)